sensor_id;sensor_type;location;lat;lon;timestamp;P1;durP1;ratioP1;P2;durP2;ratioP2
6983;SDS011;3532;51.118;7.210;2023-06-19T00:00:41;5.77;;;5.07;;
6983;SDS011;3532;51.118;7.210;2023-06-19T00:03:07;5.87;;;5.37;;
6983;SDS011;3532;51.118;7.210;2023-06-19T00:05:32;5.43;;;4.97;;
6983;SDS011;3532;51.118;7.210;2023-06-19T00:07:58;6.13;;;5.00;;
6983;SDS011;3532;51.118;7.210;2023-06-19T00:10:23;5.43;;;4.93;;
6983;SDS011;3532;51.118;7.210;2023-06-19T00:12:48;5.17;;;4.67;;
6983;SDS011;3532;51.118;7.210;2023-06-19T00:15:14;5.17;;;4.73;;
6983;SDS011;3532;51.118;7.210;2023-06-19T00:17:39;6.00;;;5.50;;
6983;SDS011;3532;51.118;7.210;2023-06-19T00:20:05;5.83;;;5.33;;
6983;SDS011;3532;51.118;7.210;2023-06-19T00:22:31;6.60;;;4.53;;
6983;SDS011;3532;51.118;7.210;2023-06-19T00:24:57;5.60;;;5.20;;
6983;SDS011;3532;51.118;7.210;2023-06-19T00:27:22;5.57;;;5.07;;
6983;SDS011;3532;51.118;7.210;2023-06-19T00:29:49;4.73;;;4.33;;
6983;SDS011;3532;51.118;7.210;2023-06-19T00:32:15;5.67;;;5.17;;
6983;SDS011;3532;51.118;7.210;2023-06-19T00:34:40;5.60;;;5.10;;
6983;SDS011;3532;51.118;7.210;2023-06-19T00:37:08;6.07;;;5.43;;
6983;SDS011;3532;51.118;7.210;2023-06-19T00:39:35;5.87;;;5.37;;
6983;SDS011;3532;51.118;7.210;2023-06-19T00:42:00;5.63;;;5.13;;
6983;SDS011;3532;51.118;7.210;2023-06-19T00:44:26;5.03;;;4.63;;
6983;SDS011;3532;51.118;7.210;2023-06-19T00:46:58;6.23;;;5.63;;
6983;SDS011;3532;51.118;7.210;2023-06-19T00:49:25;6.10;;;5.23;;
6983;SDS011;3532;51.118;7.210;2023-06-19T00:51:51;6.03;;;5.53;;
6983;SDS011;3532;51.118;7.210;2023-06-19T00:54:17;5.50;;;5.03;;
6983;SDS011;3532;51.118;7.210;2023-06-19T00:56:43;5.80;;;5.30;;
6983;SDS011;3532;51.118;7.210;2023-06-19T00:59:11;6.63;;;5.50;;
6983;SDS011;3532;51.118;7.210;2023-06-19T01:01:41;6.20;;;5.70;;
6983;SDS011;3532;51.118;7.210;2023-06-19T01:04:06;5.63;;;5.23;;
6983;SDS011;3532;51.118;7.210;2023-06-19T01:06:33;5.87;;;5.37;;
6983;SDS011;3532;51.118;7.210;2023-06-19T01:09:05;5.97;;;5.37;;
6983;SDS011;3532;51.118;7.210;2023-06-19T01:11:37;5.60;;;5.10;;
6983;SDS011;3532;51.118;7.210;2023-06-19T01:14:07;7.10;;;5.57;;
6983;SDS011;3532;51.118;7.210;2023-06-19T01:16:34;6.10;;;5.57;;
6983;SDS011;3532;51.118;7.210;2023-06-19T01:19:00;6.90;;;6.27;;
6983;SDS011;3532;51.118;7.210;2023-06-19T01:21:25;5.33;;;4.93;;
6983;SDS011;3532;51.118;7.210;2023-06-19T01:23:51;6.47;;;5.87;;
6983;SDS011;3532;51.118;7.210;2023-06-19T01:26:16;6.00;;;5.60;;
6983;SDS011;3532;51.118;7.210;2023-06-19T01:28:42;5.93;;;5.43;;
6983;SDS011;3532;51.118;7.210;2023-06-19T01:31:11;6.07;;;5.57;;
6983;SDS011;3532;51.118;7.210;2023-06-19T01:33:38;8.60;;;5.93;;
6983;SDS011;3532;51.118;7.210;2023-06-19T01:36:04;6.17;;;5.67;;
6983;SDS011;3532;51.118;7.210;2023-06-19T01:38:30;6.33;;;5.73;;
6983;SDS011;3532;51.118;7.210;2023-06-19T01:40:56;5.97;;;5.47;;
6983;SDS011;3532;51.118;7.210;2023-06-19T01:43:23;6.17;;;5.57;;
6983;SDS011;3532;51.118;7.210;2023-06-19T01:45:48;6.57;;;6.07;;
6983;SDS011;3532;51.118;7.210;2023-06-19T01:48:14;7.57;;;6.53;;
6983;SDS011;3532;51.118;7.210;2023-06-19T01:50:40;6.07;;;5.57;;
6983;SDS011;3532;51.118;7.210;2023-06-19T01:53:06;7.00;;;6.40;;
6983;SDS011;3532;51.118;7.210;2023-06-19T01:55:31;6.73;;;6.23;;
6983;SDS011;3532;51.118;7.210;2023-06-19T01:57:57;6.43;;;5.93;;
6983;SDS011;3532;51.118;7.210;2023-06-19T02:00:22;6.67;;;6.07;;
6983;SDS011;3532;51.118;7.210;2023-06-19T02:02:48;6.73;;;6.13;;
6983;SDS011;3532;51.118;7.210;2023-06-19T02:05:13;6.10;;;5.60;;
6983;SDS011;3532;51.118;7.210;2023-06-19T02:07:38;6.70;;;6.07;;
6983;SDS011;3532;51.118;7.210;2023-06-19T02:10:04;6.50;;;6.00;;
6983;SDS011;3532;51.118;7.210;2023-06-19T02:12:30;7.60;;;6.90;;
6983;SDS011;3532;51.118;7.210;2023-06-19T02:14:55;6.63;;;6.13;;
6983;SDS011;3532;51.118;7.210;2023-06-19T02:17:21;6.70;;;6.07;;
6983;SDS011;3532;51.118;7.210;2023-06-19T02:19:46;5.93;;;5.50;;
6983;SDS011;3532;51.118;7.210;2023-06-19T02:22:11;6.47;;;5.97;;
6983;SDS011;3532;51.118;7.210;2023-06-19T02:24:37;7.00;;;6.40;;
6983;SDS011;3532;51.118;7.210;2023-06-19T02:27:02;7.20;;;6.57;;
6983;SDS011;3532;51.118;7.210;2023-06-19T02:29:28;6.47;;;5.87;;
6983;SDS011;3532;51.118;7.210;2023-06-19T02:31:54;6.83;;;6.23;;
6983;SDS011;3532;51.118;7.210;2023-06-19T02:34:20;6.07;;;5.57;;
6983;SDS011;3532;51.118;7.210;2023-06-19T02:36:45;6.53;;;6.03;;
6983;SDS011;3532;51.118;7.210;2023-06-19T02:39:12;7.50;;;6.90;;
6983;SDS011;3532;51.118;7.210;2023-06-19T02:41:38;7.27;;;6.53;;
6983;SDS011;3532;51.118;7.210;2023-06-19T02:44:03;6.37;;;5.83;;
6983;SDS011;3532;51.118;7.210;2023-06-19T02:46:28;7.00;;;6.30;;
6983;SDS011;3532;51.118;7.210;2023-06-19T02:48:54;6.93;;;6.27;;
6983;SDS011;3532;51.118;7.210;2023-06-19T02:51:19;6.73;;;5.97;;
6983;SDS011;3532;51.118;7.210;2023-06-19T02:53:44;6.97;;;6.20;;
6983;SDS011;3532;51.118;7.210;2023-06-19T02:56:11;6.77;;;6.27;;
6983;SDS011;3532;51.118;7.210;2023-06-19T02:58:36;6.37;;;5.80;;
6983;SDS011;3532;51.118;7.210;2023-06-19T03:01:02;7.17;;;6.47;;
6983;SDS011;3532;51.118;7.210;2023-06-19T03:03:28;6.73;;;6.20;;
6983;SDS011;3532;51.118;7.210;2023-06-19T03:05:54;7.17;;;6.57;;
6983;SDS011;3532;51.118;7.210;2023-06-19T03:08:20;7.43;;;6.73;;
6983;SDS011;3532;51.118;7.210;2023-06-19T03:10:45;6.10;;;5.60;;
6983;SDS011;3532;51.118;7.210;2023-06-19T03:13:10;6.80;;;6.17;;
6983;SDS011;3532;51.118;7.210;2023-06-19T03:15:36;7.17;;;6.47;;
6983;SDS011;3532;51.118;7.210;2023-06-19T03:18:01;6.57;;;5.97;;
6983;SDS011;3532;51.118;7.210;2023-06-19T03:20:29;7.00;;;6.33;;
6983;SDS011;3532;51.118;7.210;2023-06-19T03:22:54;6.73;;;6.13;;
6983;SDS011;3532;51.118;7.210;2023-06-19T03:25:20;6.63;;;6.03;;
6983;SDS011;3532;51.118;7.210;2023-06-19T03:27:45;7.33;;;6.63;;
6983;SDS011;3532;51.118;7.210;2023-06-19T03:30:10;6.87;;;6.30;;
6983;SDS011;3532;51.118;7.210;2023-06-19T03:32:37;7.57;;;6.40;;
6983;SDS011;3532;51.118;7.210;2023-06-19T03:35:03;6.47;;;5.97;;
6983;SDS011;3532;51.118;7.210;2023-06-19T03:37:30;7.00;;;6.30;;
6983;SDS011;3532;51.118;7.210;2023-06-19T03:39:57;6.93;;;6.33;;
6983;SDS011;3532;51.118;7.210;2023-06-19T03:42:22;7.13;;;6.47;;
6983;SDS011;3532;51.118;7.210;2023-06-19T03:44:48;6.97;;;6.27;;
6983;SDS011;3532;51.118;7.210;2023-06-19T03:47:13;7.00;;;6.30;;
6983;SDS011;3532;51.118;7.210;2023-06-19T03:49:39;6.37;;;5.87;;
6983;SDS011;3532;51.118;7.210;2023-06-19T03:52:04;6.90;;;6.30;;
6983;SDS011;3532;51.118;7.210;2023-06-19T03:54:30;6.77;;;6.27;;
6983;SDS011;3532;51.118;7.210;2023-06-19T03:56:55;6.70;;;6.20;;
6983;SDS011;3532;51.118;7.210;2023-06-19T03:59:20;7.30;;;6.70;;
6983;SDS011;3532;51.118;7.210;2023-06-19T04:01:45;6.10;;;5.57;;
6983;SDS011;3532;51.118;7.210;2023-06-19T04:04:11;7.43;;;6.73;;
6983;SDS011;3532;51.118;7.210;2023-06-19T04:06:36;7.43;;;6.73;;
6983;SDS011;3532;51.118;7.210;2023-06-19T04:09:01;7.10;;;6.50;;
6983;SDS011;3532;51.118;7.210;2023-06-19T04:11:27;6.97;;;6.37;;
6983;SDS011;3532;51.118;7.210;2023-06-19T04:13:52;7.13;;;6.43;;
6983;SDS011;3532;51.118;7.210;2023-06-19T04:16:18;6.47;;;5.70;;
6983;SDS011;3532;51.118;7.210;2023-06-19T04:18:43;6.30;;;5.80;;
6983;SDS011;3532;51.118;7.210;2023-06-19T04:21:09;6.20;;;5.70;;
6983;SDS011;3532;51.118;7.210;2023-06-19T04:23:34;7.10;;;6.40;;
6983;SDS011;3532;51.118;7.210;2023-06-19T04:26:00;6.23;;;5.63;;
6983;SDS011;3532;51.118;7.210;2023-06-19T04:28:25;6.20;;;5.60;;
6983;SDS011;3532;51.118;7.210;2023-06-19T04:30:51;6.40;;;5.80;;
6983;SDS011;3532;51.118;7.210;2023-06-19T04:33:28;5.93;;;5.33;;
6983;SDS011;3532;51.118;7.210;2023-06-19T04:35:54;6.57;;;5.10;;
6983;SDS011;3532;51.118;7.210;2023-06-19T04:38:20;6.30;;;5.67;;
6983;SDS011;3532;51.118;7.210;2023-06-19T04:40:48;7.67;;;4.37;;
6983;SDS011;3532;51.118;7.210;2023-06-19T04:43:17;4.83;;;4.43;;
6983;SDS011;3532;51.118;7.210;2023-06-19T04:45:42;5.10;;;4.60;;
6983;SDS011;3532;51.118;7.210;2023-06-19T04:48:08;5.07;;;4.47;;
6983;SDS011;3532;51.118;7.210;2023-06-19T04:50:34;6.23;;;4.90;;
6983;SDS011;3532;51.118;7.210;2023-06-19T04:53:00;5.47;;;5.03;;
6983;SDS011;3532;51.118;7.210;2023-06-19T04:55:25;4.30;;;3.97;;
6983;SDS011;3532;51.118;7.210;2023-06-19T04:57:50;5.40;;;4.27;;
6983;SDS011;3532;51.118;7.210;2023-06-19T05:00:16;4.53;;;4.10;;
6983;SDS011;3532;51.118;7.210;2023-06-19T05:02:44;4.37;;;3.97;;
6983;SDS011;3532;51.118;7.210;2023-06-19T05:05:10;4.23;;;3.83;;
6983;SDS011;3532;51.118;7.210;2023-06-19T05:07:36;3.97;;;3.67;;
6983;SDS011;3532;51.118;7.210;2023-06-19T05:10:01;4.50;;;4.07;;
6983;SDS011;3532;51.118;7.210;2023-06-19T05:12:27;3.63;;;3.33;;
6983;SDS011;3532;51.118;7.210;2023-06-19T05:14:52;5.30;;;3.80;;
6983;SDS011;3532;51.118;7.210;2023-06-19T05:17:18;4.77;;;3.60;;
6983;SDS011;3532;51.118;7.210;2023-06-19T05:19:43;4.07;;;3.67;;
6983;SDS011;3532;51.118;7.210;2023-06-19T05:22:08;5.07;;;3.60;;
6983;SDS011;3532;51.118;7.210;2023-06-19T05:24:34;5.20;;;3.53;;
6983;SDS011;3532;51.118;7.210;2023-06-19T05:26:59;3.40;;;3.10;;
6983;SDS011;3532;51.118;7.210;2023-06-19T05:29:24;3.63;;;3.33;;
6983;SDS011;3532;51.118;7.210;2023-06-19T05:31:50;3.57;;;3.27;;
6983;SDS011;3532;51.118;7.210;2023-06-19T05:34:15;3.70;;;3.40;;
6983;SDS011;3532;51.118;7.210;2023-06-19T05:36:40;4.27;;;3.23;;
6983;SDS011;3532;51.118;7.210;2023-06-19T05:39:06;3.97;;;3.57;;
6983;SDS011;3532;51.118;7.210;2023-06-19T05:41:31;3.50;;;3.13;;
6983;SDS011;3532;51.118;7.210;2023-06-19T05:43:57;3.80;;;3.40;;
6983;SDS011;3532;51.118;7.210;2023-06-19T05:46:23;3.20;;;2.90;;
6983;SDS011;3532;51.118;7.210;2023-06-19T05:48:48;3.80;;;3.40;;
6983;SDS011;3532;51.118;7.210;2023-06-19T05:51:13;4.53;;;3.50;;
6983;SDS011;3532;51.118;7.210;2023-06-19T05:53:39;3.70;;;3.40;;
6983;SDS011;3532;51.118;7.210;2023-06-19T05:56:05;3.50;;;3.20;;
6983;SDS011;3532;51.118;7.210;2023-06-19T05:58:30;5.27;;;3.83;;
6983;SDS011;3532;51.118;7.210;2023-06-19T06:00:56;3.50;;;3.20;;
6983;SDS011;3532;51.118;7.210;2023-06-19T06:03:23;3.73;;;3.43;;
6983;SDS011;3532;51.118;7.210;2023-06-19T06:05:50;3.57;;;3.27;;
6983;SDS011;3532;51.118;7.210;2023-06-19T06:08:15;3.53;;;3.23;;
6983;SDS011;3532;51.118;7.210;2023-06-19T06:10:40;4.00;;;3.33;;
6983;SDS011;3532;51.118;7.210;2023-06-19T06:13:06;3.60;;;3.30;;
6983;SDS011;3532;51.118;7.210;2023-06-19T06:15:31;3.73;;;3.43;;
6983;SDS011;3532;51.118;7.210;2023-06-19T06:17:57;3.60;;;3.30;;
6983;SDS011;3532;51.118;7.210;2023-06-19T06:20:22;3.80;;;3.50;;
6983;SDS011;3532;51.118;7.210;2023-06-19T06:22:47;3.53;;;3.23;;
6983;SDS011;3532;51.118;7.210;2023-06-19T06:25:13;3.17;;;2.97;;
6983;SDS011;3532;51.118;7.210;2023-06-19T06:27:38;3.60;;;3.30;;
6983;SDS011;3532;51.118;7.210;2023-06-19T06:30:03;4.00;;;2.80;;
6983;SDS011;3532;51.118;7.210;2023-06-19T06:32:29;3.60;;;3.30;;
6983;SDS011;3532;51.118;7.210;2023-06-19T06:34:56;3.27;;;3.00;;
6983;SDS011;3532;51.118;7.210;2023-06-19T06:37:21;3.57;;;3.27;;
6983;SDS011;3532;51.118;7.210;2023-06-19T06:39:50;6.10;;;3.43;;
6983;SDS011;3532;51.118;7.210;2023-06-19T06:42:15;5.03;;;3.03;;
6983;SDS011;3532;51.118;7.210;2023-06-19T06:44:41;3.47;;;3.17;;
6983;SDS011;3532;51.118;7.210;2023-06-19T06:47:06;4.70;;;3.73;;
6983;SDS011;3532;51.118;7.210;2023-06-19T06:49:32;4.13;;;3.50;;
6983;SDS011;3532;51.118;7.210;2023-06-19T06:51:57;3.47;;;3.00;;
6983;SDS011;3532;51.118;7.210;2023-06-19T06:54:22;4.07;;;3.67;;
6983;SDS011;3532;51.118;7.210;2023-06-19T06:56:48;3.93;;;2.50;;
6983;SDS011;3532;51.118;7.210;2023-06-19T06:59:13;3.00;;;2.60;;
6983;SDS011;3532;51.118;7.210;2023-06-19T07:01:41;2.67;;;2.47;;
6983;SDS011;3532;51.118;7.210;2023-06-19T07:04:06;2.50;;;2.30;;
6983;SDS011;3532;51.118;7.210;2023-06-19T07:06:32;2.50;;;2.30;;
6983;SDS011;3532;51.118;7.210;2023-06-19T07:08:57;3.20;;;2.33;;
6983;SDS011;3532;51.118;7.210;2023-06-19T07:11:22;2.10;;;2.00;;
6983;SDS011;3532;51.118;7.210;2023-06-19T07:13:48;2.20;;;2.00;;
6983;SDS011;3532;51.118;7.210;2023-06-19T07:16:13;2.50;;;2.30;;
6983;SDS011;3532;51.118;7.210;2023-06-19T07:18:39;2.53;;;2.33;;
6983;SDS011;3532;51.118;7.210;2023-06-19T07:21:06;2.40;;;2.20;;
6983;SDS011;3532;51.118;7.210;2023-06-19T07:23:36;2.20;;;2.00;;
6983;SDS011;3532;51.118;7.210;2023-06-19T07:26:01;2.53;;;2.33;;
6983;SDS011;3532;51.118;7.210;2023-06-19T07:28:27;2.40;;;2.20;;
6983;SDS011;3532;51.118;7.210;2023-06-19T07:30:53;2.40;;;2.20;;
6983;SDS011;3532;51.118;7.210;2023-06-19T07:33:18;2.20;;;2.00;;
6983;SDS011;3532;51.118;7.210;2023-06-19T07:35:43;2.63;;;2.43;;
6983;SDS011;3532;51.118;7.210;2023-06-19T07:38:09;2.50;;;2.30;;
6983;SDS011;3532;51.118;7.210;2023-06-19T07:40:34;3.57;;;2.47;;
6983;SDS011;3532;51.118;7.210;2023-06-19T07:42:59;2.77;;;2.47;;
6983;SDS011;3532;51.118;7.210;2023-06-19T07:45:25;3.93;;;2.53;;
6983;SDS011;3532;51.118;7.210;2023-06-19T07:47:54;2.43;;;2.20;;
6983;SDS011;3532;51.118;7.210;2023-06-19T07:50:20;2.70;;;2.50;;
6983;SDS011;3532;51.118;7.210;2023-06-19T07:52:45;3.27;;;2.40;;
6983;SDS011;3532;51.118;7.210;2023-06-19T07:55:10;2.83;;;2.37;;
6983;SDS011;3532;51.118;7.210;2023-06-19T07:57:36;17.37;;;6.90;;
6983;SDS011;3532;51.118;7.210;2023-06-19T08:00:01;32.57;;;8.53;;
6983;SDS011;3532;51.118;7.210;2023-06-19T08:02:35;5.50;;;2.87;;
6983;SDS011;3532;51.118;7.210;2023-06-19T08:05:01;4.73;;;3.17;;
6983;SDS011;3532;51.118;7.210;2023-06-19T08:07:26;6.10;;;2.97;;
6983;SDS011;3532;51.118;7.210;2023-06-19T08:09:51;8.53;;;2.40;;
6983;SDS011;3532;51.118;7.210;2023-06-19T08:12:17;3.83;;;2.90;;
6983;SDS011;3532;51.118;7.210;2023-06-19T08:14:42;7.70;;;3.33;;
6983;SDS011;3532;51.118;7.210;2023-06-19T08:17:07;6.20;;;3.27;;
6983;SDS011;3532;51.118;7.210;2023-06-19T08:19:33;3.37;;;2.67;;
6983;SDS011;3532;51.118;7.210;2023-06-19T08:21:58;3.07;;;2.63;;
6983;SDS011;3532;51.118;7.210;2023-06-19T08:24:23;3.00;;;2.70;;
6983;SDS011;3532;51.118;7.210;2023-06-19T08:26:49;2.60;;;2.40;;
6983;SDS011;3532;51.118;7.210;2023-06-19T08:29:16;4.33;;;3.00;;
6983;SDS011;3532;51.118;7.210;2023-06-19T08:31:42;4.43;;;2.63;;
6983;SDS011;3532;51.118;7.210;2023-06-19T08:34:07;3.50;;;3.20;;
6983;SDS011;3532;51.118;7.210;2023-06-19T08:36:34;4.30;;;2.63;;
6983;SDS011;3532;51.118;7.210;2023-06-19T08:39:00;3.07;;;2.60;;
6983;SDS011;3532;51.118;7.210;2023-06-19T08:41:25;4.70;;;2.77;;
6983;SDS011;3532;51.118;7.210;2023-06-19T08:43:51;3.43;;;2.93;;
6983;SDS011;3532;51.118;7.210;2023-06-19T08:46:17;3.87;;;2.90;;
6983;SDS011;3532;51.118;7.210;2023-06-19T08:48:43;3.37;;;2.40;;
6983;SDS011;3532;51.118;7.210;2023-06-19T08:51:09;4.83;;;3.07;;
6983;SDS011;3532;51.118;7.210;2023-06-19T08:53:35;4.33;;;3.50;;
6983;SDS011;3532;51.118;7.210;2023-06-19T08:56:02;3.53;;;2.60;;
6983;SDS011;3532;51.118;7.210;2023-06-19T08:58:28;4.40;;;2.90;;
6983;SDS011;3532;51.118;7.210;2023-06-19T09:00:53;3.10;;;2.60;;
6983;SDS011;3532;51.118;7.210;2023-06-19T09:03:21;3.90;;;3.40;;
6983;SDS011;3532;51.118;7.210;2023-06-19T09:05:47;2.73;;;2.53;;
6983;SDS011;3532;51.118;7.210;2023-06-19T09:08:18;3.90;;;3.17;;
6983;SDS011;3532;51.118;7.210;2023-06-19T09:11:00;3.27;;;2.97;;
6983;SDS011;3532;51.118;7.210;2023-06-19T09:13:27;3.90;;;2.53;;
6983;SDS011;3532;51.118;7.210;2023-06-19T09:16:06;2.83;;;2.60;;
6983;SDS011;3532;51.118;7.210;2023-06-19T09:19:05;3.13;;;2.83;;
6983;SDS011;3532;51.118;7.210;2023-06-19T09:21:24;3.07;;;2.73;;
6983;SDS011;3532;51.118;7.210;2023-06-19T09:23:50;3.03;;;2.77;;
6983;SDS011;3532;51.118;7.210;2023-06-19T09:26:16;2.83;;;2.53;;
6983;SDS011;3532;51.118;7.210;2023-06-19T09:28:43;3.40;;;3.10;;
6983;SDS011;3532;51.118;7.210;2023-06-19T09:31:09;3.53;;;2.63;;
6983;SDS011;3532;51.118;7.210;2023-06-19T09:33:34;2.60;;;2.40;;
6983;SDS011;3532;51.118;7.210;2023-06-19T09:36:01;4.47;;;3.20;;
6983;SDS011;3532;51.118;7.210;2023-06-19T09:38:28;3.73;;;2.60;;
6983;SDS011;3532;51.118;7.210;2023-06-19T09:40:55;2.77;;;2.50;;
6983;SDS011;3532;51.118;7.210;2023-06-19T09:43:23;3.47;;;3.20;;
6983;SDS011;3532;51.118;7.210;2023-06-19T09:45:50;4.70;;;3.33;;
6983;SDS011;3532;51.118;7.210;2023-06-19T09:48:20;3.80;;;3.47;;
6983;SDS011;3532;51.118;7.210;2023-06-19T09:50:50;3.40;;;3.20;;
6983;SDS011;3532;51.118;7.210;2023-06-19T09:53:20;3.87;;;3.57;;
6983;SDS011;3532;51.118;7.210;2023-06-19T09:55:47;3.93;;;3.47;;
6983;SDS011;3532;51.118;7.210;2023-06-19T09:58:15;4.03;;;3.53;;
6983;SDS011;3532;51.118;7.210;2023-06-19T10:00:41;3.60;;;3.30;;
6983;SDS011;3532;51.118;7.210;2023-06-19T10:03:11;3.87;;;3.53;;
6983;SDS011;3532;51.118;7.210;2023-06-19T10:05:37;4.27;;;3.87;;
6983;SDS011;3532;51.118;7.210;2023-06-19T10:08:02;4.30;;;3.77;;
6983;SDS011;3532;51.118;7.210;2023-06-19T10:10:29;5.33;;;4.90;;
6983;SDS011;3532;51.118;7.210;2023-06-19T10:12:55;5.03;;;4.10;;
6983;SDS011;3532;51.118;7.210;2023-06-19T10:15:26;4.47;;;4.07;;
6983;SDS011;3532;51.118;7.210;2023-06-19T10:18:02;4.93;;;4.10;;
6983;SDS011;3532;51.118;7.210;2023-06-19T10:20:32;5.43;;;4.23;;
6983;SDS011;3532;51.118;7.210;2023-06-19T10:23:16;5.47;;;4.40;;
6983;SDS011;3532;51.118;7.210;2023-06-19T10:25:44;4.47;;;4.07;;
6983;SDS011;3532;51.118;7.210;2023-06-19T10:30:41;4.60;;;4.13;;
6983;SDS011;3532;51.118;7.210;2023-06-19T10:33:07;5.50;;;4.43;;
6983;SDS011;3532;51.118;7.210;2023-06-19T10:35:39;4.50;;;4.17;;
6983;SDS011;3532;51.118;7.210;2023-06-19T10:38:05;4.70;;;4.30;;
6983;SDS011;3532;51.118;7.210;2023-06-19T10:40:31;7.17;;;4.60;;
6983;SDS011;3532;51.118;7.210;2023-06-19T10:42:56;5.20;;;4.70;;
6983;SDS011;3532;51.118;7.210;2023-06-19T10:45:21;5.30;;;4.80;;
6983;SDS011;3532;51.118;7.210;2023-06-19T10:47:53;5.17;;;4.77;;
6983;SDS011;3532;51.118;7.210;2023-06-19T10:50:19;4.93;;;4.47;;
6983;SDS011;3532;51.118;7.210;2023-06-19T10:52:45;7.57;;;4.90;;
6983;SDS011;3532;51.118;7.210;2023-06-19T10:55:12;4.87;;;4.40;;
6983;SDS011;3532;51.118;7.210;2023-06-19T10:57:37;5.53;;;4.53;;
6983;SDS011;3532;51.118;7.210;2023-06-19T11:00:04;5.00;;;4.60;;
6983;SDS011;3532;51.118;7.210;2023-06-19T11:02:36;6.77;;;4.50;;
6983;SDS011;3532;51.118;7.210;2023-06-19T11:05:04;5.50;;;4.57;;
6983;SDS011;3532;51.118;7.210;2023-06-19T11:07:30;5.50;;;4.00;;
6983;SDS011;3532;51.118;7.210;2023-06-19T11:09:57;4.90;;;4.50;;
6983;SDS011;3532;51.118;7.210;2023-06-19T11:12:22;6.00;;;4.73;;
6983;SDS011;3532;51.118;7.210;2023-06-19T11:14:50;7.33;;;4.87;;
6983;SDS011;3532;51.118;7.210;2023-06-19T11:17:16;4.90;;;4.40;;
6983;SDS011;3532;51.118;7.210;2023-06-19T11:19:45;5.20;;;4.70;;
6983;SDS011;3532;51.118;7.210;2023-06-19T11:22:10;5.73;;;4.93;;
6983;SDS011;3532;51.118;7.210;2023-06-19T11:24:36;5.50;;;4.77;;
6983;SDS011;3532;51.118;7.210;2023-06-19T11:27:02;6.23;;;5.03;;
6983;SDS011;3532;51.118;7.210;2023-06-19T11:29:31;6.07;;;5.30;;
6983;SDS011;3532;51.118;7.210;2023-06-19T11:32:07;5.10;;;4.57;;
6983;SDS011;3532;51.118;7.210;2023-06-19T11:34:38;5.00;;;4.60;;
6983;SDS011;3532;51.118;7.210;2023-06-19T11:37:17;4.80;;;4.27;;
6983;SDS011;3532;51.118;7.210;2023-06-19T11:39:46;5.07;;;4.47;;
6983;SDS011;3532;51.118;7.210;2023-06-19T11:42:12;4.73;;;4.30;;
6983;SDS011;3532;51.118;7.210;2023-06-19T11:44:55;5.27;;;4.37;;
6983;SDS011;3532;51.118;7.210;2023-06-19T11:47:20;4.87;;;4.47;;
6983;SDS011;3532;51.118;7.210;2023-06-19T11:49:49;5.50;;;4.50;;
6983;SDS011;3532;51.118;7.210;2023-06-19T11:52:15;5.13;;;4.73;;
6983;SDS011;3532;51.118;7.210;2023-06-19T11:54:40;5.03;;;4.47;;
6983;SDS011;3532;51.118;7.210;2023-06-19T11:57:06;5.13;;;4.63;;
6983;SDS011;3532;51.118;7.210;2023-06-19T11:59:31;4.70;;;4.13;;
6983;SDS011;3532;51.118;7.210;2023-06-19T12:01:57;5.37;;;4.87;;
6983;SDS011;3532;51.118;7.210;2023-06-19T12:04:24;4.90;;;4.50;;
6983;SDS011;3532;51.118;7.210;2023-06-19T12:06:49;7.47;;;4.30;;
6983;SDS011;3532;51.118;7.210;2023-06-19T12:09:15;6.03;;;4.20;;
6983;SDS011;3532;51.118;7.210;2023-06-19T12:11:40;6.33;;;4.80;;
6983;SDS011;3532;51.118;7.210;2023-06-19T12:14:05;4.83;;;4.17;;
6983;SDS011;3532;51.118;7.210;2023-06-19T12:16:31;4.40;;;4.00;;
6983;SDS011;3532;51.118;7.210;2023-06-19T12:18:56;5.67;;;4.10;;
6983;SDS011;3532;51.118;7.210;2023-06-19T12:21:21;5.23;;;4.47;;
6983;SDS011;3532;51.118;7.210;2023-06-19T12:23:47;4.43;;;4.03;;
6983;SDS011;3532;51.118;7.210;2023-06-19T12:26:13;4.63;;;4.23;;
6983;SDS011;3532;51.118;7.210;2023-06-19T12:28:38;5.97;;;4.47;;
6983;SDS011;3532;51.118;7.210;2023-06-19T12:31:03;5.50;;;3.90;;
6983;SDS011;3532;51.118;7.210;2023-06-19T12:33:29;4.63;;;4.23;;
6983;SDS011;3532;51.118;7.210;2023-06-19T12:35:57;5.70;;;4.63;;
6983;SDS011;3532;51.118;7.210;2023-06-19T12:38:23;5.27;;;4.47;;
6983;SDS011;3532;51.118;7.210;2023-06-19T12:40:48;4.63;;;4.10;;
6983;SDS011;3532;51.118;7.210;2023-06-19T12:43:14;4.60;;;4.17;;
6983;SDS011;3532;51.118;7.210;2023-06-19T12:45:39;5.33;;;4.30;;
6983;SDS011;3532;51.118;7.210;2023-06-19T12:48:06;4.90;;;4.37;;
6983;SDS011;3532;51.118;7.210;2023-06-19T12:50:31;5.63;;;5.07;;
6983;SDS011;3532;51.118;7.210;2023-06-19T12:52:57;4.77;;;4.20;;
6983;SDS011;3532;51.118;7.210;2023-06-19T12:55:22;6.03;;;4.13;;
6983;SDS011;3532;51.118;7.210;2023-06-19T12:57:47;5.03;;;4.00;;
6983;SDS011;3532;51.118;7.210;2023-06-19T13:00:13;5.07;;;4.10;;
6983;SDS011;3532;51.118;7.210;2023-06-19T13:02:39;5.20;;;4.10;;
6983;SDS011;3532;51.118;7.210;2023-06-19T13:05:05;4.60;;;4.13;;
6983;SDS011;3532;51.118;7.210;2023-06-19T13:07:31;7.57;;;4.40;;
6983;SDS011;3532;51.118;7.210;2023-06-19T13:09:57;4.90;;;4.40;;
6983;SDS011;3532;51.118;7.210;2023-06-19T13:12:23;4.47;;;4.07;;
6983;SDS011;3532;51.118;7.210;2023-06-19T13:14:48;4.20;;;3.80;;
6983;SDS011;3532;51.118;7.210;2023-06-19T13:17:13;4.17;;;3.87;;
6983;SDS011;3532;51.118;7.210;2023-06-19T13:19:39;5.57;;;4.23;;
6983;SDS011;3532;51.118;7.210;2023-06-19T13:22:04;4.00;;;3.70;;
6983;SDS011;3532;51.118;7.210;2023-06-19T13:24:30;3.83;;;3.43;;
6983;SDS011;3532;51.118;7.210;2023-06-19T13:26:55;6.13;;;4.50;;
6983;SDS011;3532;51.118;7.210;2023-06-19T13:29:20;4.43;;;4.03;;
6983;SDS011;3532;51.118;7.210;2023-06-19T13:31:46;5.17;;;4.17;;
6983;SDS011;3532;51.118;7.210;2023-06-19T13:34:11;4.63;;;3.70;;
6983;SDS011;3532;51.118;7.210;2023-06-19T13:36:37;4.37;;;3.67;;
6983;SDS011;3532;51.118;7.210;2023-06-19T13:39:03;4.33;;;3.93;;
6983;SDS011;3532;51.118;7.210;2023-06-19T13:41:29;5.33;;;4.57;;
6983;SDS011;3532;51.118;7.210;2023-06-19T13:43:57;4.93;;;4.47;;
6983;SDS011;3532;51.118;7.210;2023-06-19T13:46:22;4.47;;;4.07;;
6983;SDS011;3532;51.118;7.210;2023-06-19T13:48:48;5.00;;;4.47;;
6983;SDS011;3532;51.118;7.210;2023-06-19T13:51:16;4.90;;;4.10;;
6983;SDS011;3532;51.118;7.210;2023-06-19T13:53:45;5.87;;;4.30;;
6983;SDS011;3532;51.118;7.210;2023-06-19T13:56:11;4.53;;;4.10;;
6983;SDS011;3532;51.118;7.210;2023-06-19T13:58:37;5.07;;;3.57;;
6983;SDS011;3532;51.118;7.210;2023-06-19T14:01:02;4.40;;;4.00;;
6983;SDS011;3532;51.118;7.210;2023-06-19T14:03:28;4.90;;;3.90;;
6983;SDS011;3532;51.118;7.210;2023-06-19T14:05:53;3.73;;;3.43;;
6983;SDS011;3532;51.118;7.210;2023-06-19T14:08:18;5.17;;;4.20;;
6983;SDS011;3532;51.118;7.210;2023-06-19T14:10:44;4.40;;;4.00;;
6983;SDS011;3532;51.118;7.210;2023-06-19T14:13:09;4.90;;;4.07;;
6983;SDS011;3532;51.118;7.210;2023-06-19T14:15:34;8.07;;;4.00;;
6983;SDS011;3532;51.118;7.210;2023-06-19T14:18:00;4.53;;;3.67;;
6983;SDS011;3532;51.118;7.210;2023-06-19T14:20:25;4.87;;;4.33;;
6983;SDS011;3532;51.118;7.210;2023-06-19T14:22:50;5.30;;;4.43;;
6983;SDS011;3532;51.118;7.210;2023-06-19T14:25:16;5.87;;;4.20;;
6983;SDS011;3532;51.118;7.210;2023-06-19T14:27:41;5.00;;;4.13;;
6983;SDS011;3532;51.118;7.210;2023-06-19T14:30:06;5.33;;;4.30;;
6983;SDS011;3532;51.118;7.210;2023-06-19T14:32:33;4.37;;;3.97;;
6983;SDS011;3532;51.118;7.210;2023-06-19T14:35:00;5.10;;;4.57;;
6983;SDS011;3532;51.118;7.210;2023-06-19T14:37:25;5.20;;;4.43;;
6983;SDS011;3532;51.118;7.210;2023-06-19T14:39:51;4.83;;;4.10;;
6983;SDS011;3532;51.118;7.210;2023-06-19T14:42:16;4.70;;;4.30;;
6983;SDS011;3532;51.118;7.210;2023-06-19T14:44:41;4.73;;;4.27;;
6983;SDS011;3532;51.118;7.210;2023-06-19T14:47:07;4.60;;;3.90;;
6983;SDS011;3532;51.118;7.210;2023-06-19T14:49:32;5.70;;;4.13;;
6983;SDS011;3532;51.118;7.210;2023-06-19T14:51:57;4.67;;;4.10;;
6983;SDS011;3532;51.118;7.210;2023-06-19T14:54:23;5.23;;;4.70;;
6983;SDS011;3532;51.118;7.210;2023-06-19T14:56:48;5.27;;;4.43;;
6983;SDS011;3532;51.118;7.210;2023-06-19T14:59:15;7.90;;;4.67;;
6983;SDS011;3532;51.118;7.210;2023-06-19T15:01:40;7.57;;;4.73;;
6983;SDS011;3532;51.118;7.210;2023-06-19T15:04:06;4.90;;;3.80;;
6983;SDS011;3532;51.118;7.210;2023-06-19T15:06:31;4.83;;;4.43;;
6983;SDS011;3532;51.118;7.210;2023-06-19T15:08:57;5.50;;;4.40;;
6983;SDS011;3532;51.118;7.210;2023-06-19T15:11:22;5.80;;;4.30;;